sensor_id;sensor_type;location;lat;lon;timestamp;P1;durP1;ratioP1;P2;durP2;ratioP2
54368;SDS011;40266;52.434;17.056;2023-04-24T00:04:12;34.00;;;24.40;;
54368;SDS011;40266;52.434;17.056;2023-04-24T00:06:59;32.20;;;21.60;;
54368;SDS011;40266;52.434;17.056;2023-04-24T00:09:43;34.70;;;24.10;;
54368;SDS011;40266;52.434;17.056;2023-04-24T00:12:26;33.30;;;23.80;;
54368;SDS011;40266;52.434;17.056;2023-04-24T00:15:10;30.60;;;21.80;;
54368;SDS011;40266;52.434;17.056;2023-04-24T00:17:53;34.50;;;22.80;;
54368;SDS011;40266;52.434;17.056;2023-04-24T00:20:36;36.20;;;24.20;;
54368;SDS011;40266;52.434;17.056;2023-04-24T00:23:20;34.20;;;24.50;;
54368;SDS011;40266;52.434;17.056;2023-04-24T00:26:02;32.50;;;23.10;;
54368;SDS011;40266;52.434;17.056;2023-04-24T00:28:45;30.70;;;22.30;;
54368;SDS011;40266;52.434;17.056;2023-04-24T00:31:28;30.80;;;22.40;;
54368;SDS011;40266;52.434;17.056;2023-04-24T00:34:11;34.50;;;22.50;;
54368;SDS011;40266;52.434;17.056;2023-04-24T00:36:55;34.20;;;23.80;;
54368;SDS011;40266;52.434;17.056;2023-04-24T00:39:37;32.20;;;24.00;;
54368;SDS011;40266;52.434;17.056;2023-04-24T00:42:20;33.30;;;24.40;;
54368;SDS011;40266;52.434;17.056;2023-04-24T00:45:04;35.80;;;23.90;;
54368;SDS011;40266;52.434;17.056;2023-04-24T00:47:48;34.40;;;23.60;;
54368;SDS011;40266;52.434;17.056;2023-04-24T00:50:32;33.90;;;22.60;;
54368;SDS011;40266;52.434;17.056;2023-04-24T00:53:15;30.90;;;23.40;;
54368;SDS011;40266;52.434;17.056;2023-04-24T00:55:57;30.90;;;22.40;;
54368;SDS011;40266;52.434;17.056;2023-04-24T00:58:41;35.00;;;22.70;;
54368;SDS011;40266;52.434;17.056;2023-04-24T01:01:24;31.50;;;22.00;;
54368;SDS011;40266;52.434;17.056;2023-04-24T01:04:08;33.10;;;21.90;;
54368;SDS011;40266;52.434;17.056;2023-04-24T01:07:02;32.20;;;22.30;;
54368;SDS011;40266;52.434;17.056;2023-04-24T01:10:16;31.30;;;21.70;;
54368;SDS011;40266;52.434;17.056;2023-04-24T01:13:01;30.50;;;21.40;;
54368;SDS011;40266;52.434;17.056;2023-04-24T01:16:20;30.60;;;20.30;;
54368;SDS011;40266;52.434;17.056;2023-04-24T01:22:37;34.00;;;22.20;;
54368;SDS011;40266;52.434;17.056;2023-04-24T01:25:31;32.60;;;21.80;;
54368;SDS011;40266;52.434;17.056;2023-04-24T01:28:15;32.40;;;21.60;;
54368;SDS011;40266;52.434;17.056;2023-04-24T01:31:23;30.00;;;20.80;;
54368;SDS011;40266;52.434;17.056;2023-04-24T01:34:10;29.70;;;19.50;;
54368;SDS011;40266;52.434;17.056;2023-04-24T01:37:18;30.20;;;20.50;;
54368;SDS011;40266;52.434;17.056;2023-04-24T01:40:07;31.70;;;21.30;;
54368;SDS011;40266;52.434;17.056;2023-04-24T01:43:00;32.90;;;20.60;;
54368;SDS011;40266;52.434;17.056;2023-04-24T01:45:45;30.70;;;20.80;;
54368;SDS011;40266;52.434;17.056;2023-04-24T01:48:40;29.60;;;20.50;;
54368;SDS011;40266;52.434;17.056;2023-04-24T01:52:12;31.00;;;20.50;;
54368;SDS011;40266;52.434;17.056;2023-04-24T01:54:59;32.30;;;22.00;;
54368;SDS011;40266;52.434;17.056;2023-04-24T01:58:00;32.80;;;22.90;;
54368;SDS011;40266;52.434;17.056;2023-04-24T02:00:50;35.00;;;23.10;;
54368;SDS011;40266;52.434;17.056;2023-04-24T02:04:01;31.80;;;20.80;;
54368;SDS011;40266;52.434;17.056;2023-04-24T02:07:02;30.90;;;20.40;;
54368;SDS011;40266;52.434;17.056;2023-04-24T02:10:03;30.40;;;20.60;;
54368;SDS011;40266;52.434;17.056;2023-04-24T02:13:02;31.10;;;19.80;;
54368;SDS011;40266;52.434;17.056;2023-04-24T02:16:16;29.30;;;19.60;;
54368;SDS011;40266;52.434;17.056;2023-04-24T02:19:34;31.20;;;18.30;;
54368;SDS011;40266;52.434;17.056;2023-04-24T02:22:21;29.50;;;19.10;;
54368;SDS011;40266;52.434;17.056;2023-04-24T02:28:23;26.50;;;17.20;;
54368;SDS011;40266;52.434;17.056;2023-04-24T02:31:10;27.60;;;18.40;;
54368;SDS011;40266;52.434;17.056;2023-04-24T02:33:56;27.60;;;17.20;;
54368;SDS011;40266;52.434;17.056;2023-04-24T02:36:47;25.70;;;17.10;;
54368;SDS011;40266;52.434;17.056;2023-04-24T02:39:45;26.90;;;18.00;;
54368;SDS011;40266;52.434;17.056;2023-04-24T02:42:28;26.90;;;17.80;;
54368;SDS011;40266;52.434;17.056;2023-04-24T02:45:15;25.60;;;17.50;;
54368;SDS011;40266;52.434;17.056;2023-04-24T02:48:10;29.90;;;17.90;;
54368;SDS011;40266;52.434;17.056;2023-04-24T02:50:54;26.10;;;17.30;;
54368;SDS011;40266;52.434;17.056;2023-04-24T02:53:37;26.50;;;17.00;;
54368;SDS011;40266;52.434;17.056;2023-04-24T02:56:23;27.50;;;18.20;;
54368;SDS011;40266;52.434;17.056;2023-04-24T02:59:22;24.20;;;16.70;;
54368;SDS011;40266;52.434;17.056;2023-04-24T03:02:11;28.80;;;17.70;;
54368;SDS011;40266;52.434;17.056;2023-04-24T03:04:58;24.20;;;17.10;;
54368;SDS011;40266;52.434;17.056;2023-04-24T03:07:42;28.70;;;17.40;;
54368;SDS011;40266;52.434;17.056;2023-04-24T03:10:36;28.90;;;18.50;;
54368;SDS011;40266;52.434;17.056;2023-04-24T03:13:39;25.50;;;16.90;;
54368;SDS011;40266;52.434;17.056;2023-04-24T03:16:45;27.40;;;18.10;;
54368;SDS011;40266;52.434;17.056;2023-04-24T03:19:31;28.50;;;17.60;;
54368;SDS011;40266;52.434;17.056;2023-04-24T03:22:23;26.90;;;17.40;;
54368;SDS011;40266;52.434;17.056;2023-04-24T03:25:23;24.70;;;17.50;;
54368;SDS011;40266;52.434;17.056;2023-04-24T03:31:12;28.50;;;18.70;;
54368;SDS011;40266;52.434;17.056;2023-04-24T03:34:04;25.80;;;17.10;;
54368;SDS011;40266;52.434;17.056;2023-04-24T03:36:58;27.40;;;18.30;;
54368;SDS011;40266;52.434;17.056;2023-04-24T03:39:48;25.00;;;17.40;;
54368;SDS011;40266;52.434;17.056;2023-04-24T03:42:45;28.60;;;17.70;;
54368;SDS011;40266;52.434;17.056;2023-04-24T03:45:41;25.50;;;17.70;;
54368;SDS011;40266;52.434;17.056;2023-04-24T03:48:25;24.80;;;17.10;;
54368;SDS011;40266;52.434;17.056;2023-04-24T03:51:11;25.70;;;17.20;;
54368;SDS011;40266;52.434;17.056;2023-04-24T03:54:17;28.60;;;18.30;;
54368;SDS011;40266;52.434;17.056;2023-04-24T03:57:00;27.40;;;18.00;;
54368;SDS011;40266;52.434;17.056;2023-04-24T04:00:17;24.70;;;16.50;;
54368;SDS011;40266;52.434;17.056;2023-04-24T04:03:12;26.70;;;17.90;;
54368;SDS011;40266;52.434;17.056;2023-04-24T04:06:01;25.10;;;17.40;;
54368;SDS011;40266;52.434;17.056;2023-04-24T04:08:47;26.60;;;18.10;;
54368;SDS011;40266;52.434;17.056;2023-04-24T04:11:36;26.50;;;16.90;;
54368;SDS011;40266;52.434;17.056;2023-04-24T04:14:21;26.20;;;17.70;;
54368;SDS011;40266;52.434;17.056;2023-04-24T04:17:08;25.00;;;17.10;;
54368;SDS011;40266;52.434;17.056;2023-04-24T04:19:52;26.40;;;17.00;;
54368;SDS011;40266;52.434;17.056;2023-04-24T04:22:35;23.00;;;15.80;;
54368;SDS011;40266;52.434;17.056;2023-04-24T04:25:41;24.00;;;15.70;;
54368;SDS011;40266;52.434;17.056;2023-04-24T04:28:33;22.20;;;14.60;;
54368;SDS011;40266;52.434;17.056;2023-04-24T04:31:21;23.60;;;15.80;;
54368;SDS011;40266;52.434;17.056;2023-04-24T04:34:07;26.80;;;16.50;;
54368;SDS011;40266;52.434;17.056;2023-04-24T04:36:55;24.30;;;16.20;;
54368;SDS011;40266;52.434;17.056;2023-04-24T04:40:15;24.90;;;16.60;;
54368;SDS011;40266;52.434;17.056;2023-04-24T04:43:13;25.30;;;16.80;;
54368;SDS011;40266;52.434;17.056;2023-04-24T04:46:03;25.30;;;16.90;;
54368;SDS011;40266;52.434;17.056;2023-04-24T04:49:09;25.30;;;16.00;;
54368;SDS011;40266;52.434;17.056;2023-04-24T04:51:53;26.50;;;16.90;;
54368;SDS011;40266;52.434;17.056;2023-04-24T04:54:37;27.10;;;16.40;;
54368;SDS011;40266;52.434;17.056;2023-04-24T04:57:34;25.80;;;16.10;;
54368;SDS011;40266;52.434;17.056;2023-04-24T05:00:19;27.00;;;15.60;;
54368;SDS011;40266;52.434;17.056;2023-04-24T05:03:14;23.70;;;15.30;;
54368;SDS011;40266;52.434;17.056;2023-04-24T05:06:11;21.80;;;14.30;;
54368;SDS011;40266;52.434;17.056;2023-04-24T05:08:55;24.40;;;14.30;;
54368;SDS011;40266;52.434;17.056;2023-04-24T05:11:58;23.50;;;13.70;;
54368;SDS011;40266;52.434;17.056;2023-04-24T05:14:47;21.40;;;13.70;;
54368;SDS011;40266;52.434;17.056;2023-04-24T05:17:32;21.70;;;13.90;;
54368;SDS011;40266;52.434;17.056;2023-04-24T05:20:16;20.80;;;12.40;;
54368;SDS011;40266;52.434;17.056;2023-04-24T05:23:02;22.90;;;13.40;;
54368;SDS011;40266;52.434;17.056;2023-04-24T05:25:49;21.80;;;12.90;;
54368;SDS011;40266;52.434;17.056;2023-04-24T05:28:32;20.50;;;12.90;;
54368;SDS011;40266;52.434;17.056;2023-04-24T05:31:24;21.00;;;12.60;;
54368;SDS011;40266;52.434;17.056;2023-04-24T05:34:08;23.80;;;11.60;;
54368;SDS011;40266;52.434;17.056;2023-04-24T05:37:00;21.30;;;12.40;;
54368;SDS011;40266;52.434;17.056;2023-04-24T05:39:53;18.70;;;12.30;;
54368;SDS011;40266;52.434;17.056;2023-04-24T05:42:47;18.70;;;11.90;;
54368;SDS011;40266;52.434;17.056;2023-04-24T05:45:41;20.80;;;12.70;;
54368;SDS011;40266;52.434;17.056;2023-04-24T05:48:24;24.40;;;14.10;;
54368;SDS011;40266;52.434;17.056;2023-04-24T05:51:21;24.30;;;13.90;;
54368;SDS011;40266;52.434;17.056;2023-04-24T05:54:11;41.90;;;16.20;;
54368;SDS011;40266;52.434;17.056;2023-04-24T05:57:16;32.80;;;13.80;;
54368;SDS011;40266;52.434;17.056;2023-04-24T06:00:27;40.90;;;15.80;;
54368;SDS011;40266;52.434;17.056;2023-04-24T06:03:17;35.90;;;14.40;;
54368;SDS011;40266;52.434;17.056;2023-04-24T06:06:12;23.40;;;13.50;;
54368;SDS011;40266;52.434;17.056;2023-04-24T06:08:59;39.00;;;15.00;;
54368;SDS011;40266;52.434;17.056;2023-04-24T06:11:43;32.70;;;14.50;;
54368;SDS011;40266;52.434;17.056;2023-04-24T06:14:29;19.60;;;11.80;;
54368;SDS011;40266;52.434;17.056;2023-04-24T06:17:38;21.90;;;12.60;;
54368;SDS011;40266;52.434;17.056;2023-04-24T06:20:38;21.70;;;12.40;;
54368;SDS011;40266;52.434;17.056;2023-04-24T06:23:26;24.40;;;12.00;;
54368;SDS011;40266;52.434;17.056;2023-04-24T06:26:12;22.40;;;10.70;;
54368;SDS011;40266;52.434;17.056;2023-04-24T06:28:55;21.70;;;11.90;;
54368;SDS011;40266;52.434;17.056;2023-04-24T06:31:51;22.00;;;10.80;;
54368;SDS011;40266;52.434;17.056;2023-04-24T06:34:34;19.80;;;10.30;;
54368;SDS011;40266;52.434;17.056;2023-04-24T06:40:26;33.60;;;12.70;;
54368;SDS011;40266;52.434;17.056;2023-04-24T06:43:30;31.00;;;14.10;;
54368;SDS011;40266;52.434;17.056;2023-04-24T06:46:26;20.30;;;9.90;;
54368;SDS011;40266;52.434;17.056;2023-04-24T06:49:27;18.70;;;11.20;;
54368;SDS011;40266;52.434;17.056;2023-04-24T06:52:10;17.80;;;11.70;;
54368;SDS011;40266;52.434;17.056;2023-04-24T06:55:00;22.50;;;11.00;;
54368;SDS011;40266;52.434;17.056;2023-04-24T06:57:44;19.60;;;11.30;;
54368;SDS011;40266;52.434;17.056;2023-04-24T07:00:30;21.60;;;11.60;;
54368;SDS011;40266;52.434;17.056;2023-04-24T07:03:23;22.90;;;11.80;;
54368;SDS011;40266;52.434;17.056;2023-04-24T07:06:07;18.60;;;9.90;;
54368;SDS011;40266;52.434;17.056;2023-04-24T07:08:52;22.20;;;10.70;;
54368;SDS011;40266;52.434;17.056;2023-04-24T07:11:36;17.70;;;10.10;;
54368;SDS011;40266;52.434;17.056;2023-04-24T07:14:22;18.70;;;10.20;;
54368;SDS011;40266;52.434;17.056;2023-04-24T07:17:05;16.20;;;9.80;;
54368;SDS011;40266;52.434;17.056;2023-04-24T07:19:48;16.90;;;9.00;;
54368;SDS011;40266;52.434;17.056;2023-04-24T07:22:32;15.10;;;8.90;;
54368;SDS011;40266;52.434;17.056;2023-04-24T07:25:15;19.90;;;9.10;;
54368;SDS011;40266;52.434;17.056;2023-04-24T07:27:58;16.00;;;9.30;;
54368;SDS011;40266;52.434;17.056;2023-04-24T07:30:42;15.80;;;8.80;;
54368;SDS011;40266;52.434;17.056;2023-04-24T07:33:25;14.30;;;8.20;;
54368;SDS011;40266;52.434;17.056;2023-04-24T07:36:09;16.50;;;8.60;;
54368;SDS011;40266;52.434;17.056;2023-04-24T07:38:57;14.20;;;8.40;;
54368;SDS011;40266;52.434;17.056;2023-04-24T07:41:41;14.50;;;8.70;;
54368;SDS011;40266;52.434;17.056;2023-04-24T07:44:24;17.20;;;9.30;;
54368;SDS011;40266;52.434;17.056;2023-04-24T07:47:07;15.40;;;8.50;;
54368;SDS011;40266;52.434;17.056;2023-04-24T07:49:50;13.40;;;8.20;;
54368;SDS011;40266;52.434;17.056;2023-04-24T07:52:34;14.30;;;7.40;;
54368;SDS011;40266;52.434;17.056;2023-04-24T07:55:17;14.50;;;8.10;;
54368;SDS011;40266;52.434;17.056;2023-04-24T07:58:03;14.20;;;8.20;;
54368;SDS011;40266;52.434;17.056;2023-04-24T08:00:46;12.20;;;7.70;;
54368;SDS011;40266;52.434;17.056;2023-04-24T08:03:30;16.80;;;7.90;;
54368;SDS011;40266;52.434;17.056;2023-04-24T08:06:13;12.50;;;7.00;;
54368;SDS011;40266;52.434;17.056;2023-04-24T08:08:56;13.40;;;6.90;;
54368;SDS011;40266;52.434;17.056;2023-04-24T08:11:39;13.80;;;7.80;;
54368;SDS011;40266;52.434;17.056;2023-04-24T08:14:22;15.90;;;7.60;;
54368;SDS011;40266;52.434;17.056;2023-04-24T08:17:05;14.80;;;7.90;;
54368;SDS011;40266;52.434;17.056;2023-04-24T08:19:48;11.80;;;6.80;;
54368;SDS011;40266;52.434;17.056;2023-04-24T08:22:32;12.00;;;7.40;;
54368;SDS011;40266;52.434;17.056;2023-04-24T08:25:15;14.10;;;8.30;;
54368;SDS011;40266;52.434;17.056;2023-04-24T08:27:58;11.90;;;7.00;;
54368;SDS011;40266;52.434;17.056;2023-04-24T08:30:41;12.60;;;6.80;;
54368;SDS011;40266;52.434;17.056;2023-04-24T08:33:24;12.20;;;7.00;;
54368;SDS011;40266;52.434;17.056;2023-04-24T08:36:07;11.90;;;6.90;;
54368;SDS011;40266;52.434;17.056;2023-04-24T08:38:51;10.20;;;6.90;;
54368;SDS011;40266;52.434;17.056;2023-04-24T08:41:34;13.10;;;7.40;;
54368;SDS011;40266;52.434;17.056;2023-04-24T08:44:18;10.90;;;6.50;;
54368;SDS011;40266;52.434;17.056;2023-04-24T08:47:02;16.50;;;6.90;;
54368;SDS011;40266;52.434;17.056;2023-04-24T08:49:45;9.50;;;6.70;;
54368;SDS011;40266;52.434;17.056;2023-04-24T08:52:35;11.20;;;7.30;;
54368;SDS011;40266;52.434;17.056;2023-04-24T08:55:19;10.90;;;7.50;;
54368;SDS011;40266;52.434;17.056;2023-04-24T08:58:03;13.00;;;7.60;;
54368;SDS011;40266;52.434;17.056;2023-04-24T09:00:47;14.90;;;7.60;;
54368;SDS011;40266;52.434;17.056;2023-04-24T09:03:30;12.90;;;8.10;;
54368;SDS011;40266;52.434;17.056;2023-04-24T09:06:14;17.50;;;8.50;;
54368;SDS011;40266;52.434;17.056;2023-04-24T09:09:00;13.00;;;7.60;;
54368;SDS011;40266;52.434;17.056;2023-04-24T09:11:44;12.90;;;8.10;;
54368;SDS011;40266;52.434;17.056;2023-04-24T09:14:27;11.50;;;7.90;;
54368;SDS011;40266;52.434;17.056;2023-04-24T09:17:11;13.20;;;8.30;;
54368;SDS011;40266;52.434;17.056;2023-04-24T09:19:54;13.50;;;7.90;;
54368;SDS011;40266;52.434;17.056;2023-04-24T09:22:37;15.20;;;8.30;;
54368;SDS011;40266;52.434;17.056;2023-04-24T09:25:21;13.30;;;8.20;;
54368;SDS011;40266;52.434;17.056;2023-04-24T09:28:04;13.90;;;8.20;;
54368;SDS011;40266;52.434;17.056;2023-04-24T09:30:55;14.30;;;8.30;;
54368;SDS011;40266;52.434;17.056;2023-04-24T09:36:51;15.80;;;9.10;;
54368;SDS011;40266;52.434;17.056;2023-04-24T09:39:35;13.30;;;7.80;;
54368;SDS011;40266;52.434;17.056;2023-04-24T09:42:18;13.40;;;8.50;;
54368;SDS011;40266;52.434;17.056;2023-04-24T09:45:02;14.80;;;7.90;;
54368;SDS011;40266;52.434;17.056;2023-04-24T09:47:57;15.90;;;8.20;;
54368;SDS011;40266;52.434;17.056;2023-04-24T09:50:42;17.50;;;9.00;;
54368;SDS011;40266;52.434;17.056;2023-04-24T09:53:29;16.40;;;8.70;;
54368;SDS011;40266;52.434;17.056;2023-04-24T09:56:14;16.20;;;8.70;;
54368;SDS011;40266;52.434;17.056;2023-04-24T09:59:04;15.40;;;8.60;;
54368;SDS011;40266;52.434;17.056;2023-04-24T10:01:49;14.30;;;8.60;;
54368;SDS011;40266;52.434;17.056;2023-04-24T10:04:33;13.00;;;8.30;;
54368;SDS011;40266;52.434;17.056;2023-04-24T10:07:16;13.80;;;8.70;;
54368;SDS011;40266;52.434;17.056;2023-04-24T10:09:59;14.00;;;8.90;;
54368;SDS011;40266;52.434;17.056;2023-04-24T10:12:43;16.20;;;9.90;;
54368;SDS011;40266;52.434;17.056;2023-04-24T10:15:27;14.00;;;8.60;;
54368;SDS011;40266;52.434;17.056;2023-04-24T10:18:11;13.60;;;8.70;;
54368;SDS011;40266;52.434;17.056;2023-04-24T10:20:54;16.60;;;8.40;;
54368;SDS011;40266;52.434;17.056;2023-04-24T10:23:37;11.20;;;7.60;;
54368;SDS011;40266;52.434;17.056;2023-04-24T10:26:22;12.50;;;7.80;;
54368;SDS011;40266;52.434;17.056;2023-04-24T10:29:05;10.10;;;7.50;;
54368;SDS011;40266;52.434;17.056;2023-04-24T10:31:52;13.30;;;7.00;;
54368;SDS011;40266;52.434;17.056;2023-04-24T10:34:35;13.10;;;6.90;;
54368;SDS011;40266;52.434;17.056;2023-04-24T10:37:18;12.80;;;6.30;;
54368;SDS011;40266;52.434;17.056;2023-04-24T10:40:02;12.00;;;6.20;;
54368;SDS011;40266;52.434;17.056;2023-04-24T10:42:49;9.30;;;6.70;;
54368;SDS011;40266;52.434;17.056;2023-04-24T10:45:39;9.40;;;6.00;;
54368;SDS011;40266;52.434;17.056;2023-04-24T10:48:26;9.80;;;5.90;;
54368;SDS011;40266;52.434;17.056;2023-04-24T10:51:11;8.90;;;6.20;;
54368;SDS011;40266;52.434;17.056;2023-04-24T10:53:57;6.90;;;4.20;;
54368;SDS011;40266;52.434;17.056;2023-04-24T10:56:40;8.30;;;4.10;;
54368;SDS011;40266;52.434;17.056;2023-04-24T10:59:27;6.80;;;4.40;;
54368;SDS011;40266;52.434;17.056;2023-04-24T11:02:17;8.20;;;5.10;;
54368;SDS011;40266;52.434;17.056;2023-04-24T11:05:04;7.50;;;4.60;;
54368;SDS011;40266;52.434;17.056;2023-04-24T11:11:03;10.60;;;4.40;;
54368;SDS011;40266;52.434;17.056;2023-04-24T11:19:24;7.90;;;5.20;;
54368;SDS011;40266;52.434;17.056;2023-04-24T11:22:13;10.40;;;5.20;;
54368;SDS011;40266;52.434;17.056;2023-04-24T11:24:57;8.70;;;5.00;;
54368;SDS011;40266;52.434;17.056;2023-04-24T11:27:45;7.60;;;5.40;;
54368;SDS011;40266;52.434;17.056;2023-04-24T11:30:29;7.80;;;5.60;;
54368;SDS011;40266;52.434;17.056;2023-04-24T11:33:13;8.40;;;5.20;;
54368;SDS011;40266;52.434;17.056;2023-04-24T11:36:03;10.10;;;5.20;;
54368;SDS011;40266;52.434;17.056;2023-04-24T11:38:47;11.50;;;5.70;;
54368;SDS011;40266;52.434;17.056;2023-04-24T11:41:31;6.50;;;4.70;;
54368;SDS011;40266;52.434;17.056;2023-04-24T11:44:14;9.20;;;4.80;;
54368;SDS011;40266;52.434;17.056;2023-04-24T11:46:58;7.30;;;4.20;;
54368;SDS011;40266;52.434;17.056;2023-04-24T11:49:41;3.50;;;3.10;;
54368;SDS011;40266;52.434;17.056;2023-04-24T11:52:25;5.00;;;3.30;;
54368;SDS011;40266;52.434;17.056;2023-04-24T11:57:58;5.80;;;3.20;;
54368;SDS011;40266;52.434;17.056;2023-04-24T12:00:42;4.60;;;2.90;;
54368;SDS011;40266;52.434;17.056;2023-04-24T12:03:28;5.90;;;3.20;;
54368;SDS011;40266;52.434;17.056;2023-04-24T12:06:11;6.30;;;3.00;;
54368;SDS011;40266;52.434;17.056;2023-04-24T12:08:55;3.70;;;2.90;;
54368;SDS011;40266;52.434;17.056;2023-04-24T12:11:53;8.20;;;3.20;;
54368;SDS011;40266;52.434;17.056;2023-04-24T12:14:43;4.40;;;2.50;;
54368;SDS011;40266;52.434;17.056;2023-04-24T12:17:30;4.30;;;3.10;;
54368;SDS011;40266;52.434;17.056;2023-04-24T12:20:15;4.40;;;2.90;;
54368;SDS011;40266;52.434;17.056;2023-04-24T12:22:59;4.80;;;2.60;;
54368;SDS011;40266;52.434;17.056;2023-04-24T12:25:43;3.00;;;2.80;;
54368;SDS011;40266;52.434;17.056;2023-04-24T12:28:33;3.50;;;2.90;;
54368;SDS011;40266;52.434;17.056;2023-04-24T12:31:18;2.90;;;2.70;;
54368;SDS011;40266;52.434;17.056;2023-04-24T12:34:04;7.40;;;3.20;;
54368;SDS011;40266;52.434;17.056;2023-04-24T12:37:11;3.40;;;2.80;;
54368;SDS011;40266;52.434;17.056;2023-04-24T12:40:02;5.30;;;2.80;;
54368;SDS011;40266;52.434;17.056;2023-04-24T12:42:52;7.20;;;3.00;;
54368;SDS011;40266;52.434;17.056;2023-04-24T12:45:38;7.80;;;3.00;;
54368;SDS011;40266;52.434;17.056;2023-04-24T12:48:21;4.80;;;2.80;;
54368;SDS011;40266;52.434;17.056;2023-04-24T12:51:05;3.70;;;2.90;;
54368;SDS011;40266;52.434;17.056;2023-04-24T12:53:48;7.10;;;3.20;;
54368;SDS011;40266;52.434;17.056;2023-04-24T12:56:31;3.90;;;2.70;;
54368;SDS011;40266;52.434;17.056;2023-04-24T12:59:15;6.60;;;3.00;;
54368;SDS011;40266;52.434;17.056;2023-04-24T13:02:06;8.70;;;3.60;;
54368;SDS011;40266;52.434;17.056;2023-04-24T13:04:52;6.80;;;3.30;;
54368;SDS011;40266;52.434;17.056;2023-04-24T13:07:36;5.80;;;3.90;;
54368;SDS011;40266;52.434;17.056;2023-04-24T13:10:19;5.30;;;3.20;;
54368;SDS011;40266;52.434;17.056;2023-04-24T13:13:03;7.70;;;3.60;;
54368;SDS011;40266;52.434;17.056;2023-04-24T13:15:46;4.60;;;3.20;;
54368;SDS011;40266;52.434;17.056;2023-04-24T13:18:29;6.20;;;3.40;;
54368;SDS011;40266;52.434;17.056;2023-04-24T13:21:12;4.80;;;3.10;;
54368;SDS011;40266;52.434;17.056;2023-04-24T13:23:55;6.90;;;3.00;;
54368;SDS011;40266;52.434;17.056;2023-04-24T13:26:38;4.90;;;3.20;;
54368;SDS011;40266;52.434;17.056;2023-04-24T13:29:22;3.40;;;2.60;;
54368;SDS011;40266;52.434;17.056;2023-04-24T13:32:06;6.90;;;2.60;;
54368;SDS011;40266;52.434;17.056;2023-04-24T13:34:50;6.70;;;3.00;;
54368;SDS011;40266;52.434;17.056;2023-04-24T13:37:33;5.20;;;2.70;;
54368;SDS011;40266;52.434;17.056;2023-04-24T13:40:17;7.30;;;2.80;;
54368;SDS011;40266;52.434;17.056;2023-04-24T13:43:00;4.80;;;2.80;;
54368;SDS011;40266;52.434;17.056;2023-04-24T13:45:43;8.20;;;3.10;;
54368;SDS011;40266;52.434;17.056;2023-04-24T13:48:26;4.40;;;2.50;;
54368;SDS011;40266;52.434;17.056;2023-04-24T13:51:09;4.70;;;2.30;;
54368;SDS011;40266;52.434;17.056;2023-04-24T13:53:53;5.20;;;2.30;;
54368;SDS011;40266;52.434;17.056;2023-04-24T13:56:38;5.90;;;2.30;;
54368;SDS011;40266;52.434;17.056;2023-04-24T13:59:22;8.40;;;2.30;;
54368;SDS011;40266;52.434;17.056;2023-04-24T14:02:06;6.20;;;2.00;;
54368;SDS011;40266;52.434;17.056;2023-04-24T14:04:49;4.20;;;2.00;;
54368;SDS011;40266;52.434;17.056;2023-04-24T14:07:33;2.80;;;2.20;;
54368;SDS011;40266;52.434;17.056;2023-04-24T14:10:16;3.30;;;2.10;;
54368;SDS011;40266;52.434;17.056;2023-04-24T14:12:59;1.90;;;1.80;;
54368;SDS011;40266;52.434;17.056;2023-04-24T14:15:42;3.50;;;2.10;;
54368;SDS011;40266;52.434;17.056;2023-04-24T14:18:25;4.10;;;1.50;;
54368;SDS011;40266;52.434;17.056;2023-04-24T14:21:09;4.50;;;1.60;;
54368;SDS011;40266;52.434;17.056;2023-04-24T14:23:52;2.10;;;1.60;;
54368;SDS011;40266;52.434;17.056;2023-04-24T14:26:35;4.70;;;1.30;;
54368;SDS011;40266;52.434;17.056;2023-04-24T14:29:18;2.50;;;1.20;;
54368;SDS011;40266;52.434;17.056;2023-04-24T14:32:02;3.10;;;1.30;;
54368;SDS011;40266;52.434;17.056;2023-04-24T14:34:45;1.30;;;1.10;;
54368;SDS011;40266;52.434;17.056;2023-04-24T14:37:28;1.90;;;1.30;;
54368;SDS011;40266;52.434;17.056;2023-04-24T14:40:11;2.10;;;1.10;;
54368;SDS011;40266;52.434;17.056;2023-04-24T14:43:14;4.70;;;1.40;;
54368;SDS011;40266;52.434;17.056;2023-04-24T14:45:57;1.90;;;1.20;;
54368;SDS011;40266;52.434;17.056;2023-04-24T14:48:40;2.40;;;1.40;;
54368;SDS011;40266;52.434;17.056;2023-04-24T14:51:23;1.90;;;1.40;;
54368;SDS011;40266;52.434;17.056;2023-04-24T14:54:06;2.30;;;1.50;;
54368;SDS011;40266;52.434;17.056;2023-04-24T14:56:57;2.90;;;1.80;;
54368;SDS011;40266;52.434;17.056;2023-04-24T14:59:41;3.90;;;1.90;;
54368;SDS011;40266;52.434;17.056;2023-04-24T15:02:26;3.50;;;2.10;;
54368;SDS011;40266;52.434;17.056;2023-04-24T15:05:12;5.00;;;2.10;;
54368;SDS011;40266;52.434;17.056;2023-04-24T15:07:56;5.30;;;2.50;;
54368;SDS011;40266;52.434;17.056;2023-04-24T15:10:39;4.90;;;2.70;;
54368;SDS011;40266;52.434;17.056;2023-04-24T15:13:37;6.50;;;2.30;;
54368;SDS011;40266;52.434;17.056;2023-04-24T15:16:21;5.30;;;3.00;;
54368;SDS011;40266;52.434;17.056;2023-04-24T15:19:07;2.80;;;2.10;;
54368;SDS011;40266;52.434;17.056;2023-04-24T15:21:51;4.10;;;2.60;;
54368;SDS011;40266;52.434;17.056;2023-04-24T15:24:34;9.00;;;1.90;;
54368;SDS011;40266;52.434;17.056;2023-04-24T15:27:17;4.70;;;2.20;;
54368;SDS011;40266;52.434;17.056;2023-04-24T15:30:01;3.70;;;2.20;;
54368;SDS011;40266;52.434;17.056;2023-04-24T15:32:44;2.80;;;1.90;;
54368;SDS011;40266;52.434;17.056;2023-04-24T15:35:27;5.00;;;2.10;;
54368;SDS011;40266;52.434;17.056;2023-04-24T15:38:11;3.40;;;2.20;;
54368;SDS011;40266;52.434;17.056;2023-04-24T15:40:54;5.70;;;2.60;;
54368;SDS011;40266;52.434;17.056;2023-04-24T15:43:37;7.30;;;2.40;;
54368;SDS011;40266;52.434;17.056;2023-04-24T15:46:21;5.40;;;2.10;;
54368;SDS011;40266;52.434;17.056;2023-04-24T15:49:04;3.70;;;2.10;;
54368;SDS011;40266;52.434;17.056;2023-04-24T15:51:47;4.60;;;2.50;;
54368;SDS011;40266;52.434;17.056;2023-04-24T15:54:30;3.30;;;2.20;;
54368;SDS011;40266;52.434;17.056;2023-04-24T15:57:19;3.00;;;2.30;;
54368;SDS011;40266;52.434;17.056;2023-04-24T16:00:03;3.30;;;2.00;;
54368;SDS011;40266;52.434;17.056;2023-04-24T16:02:53;2.20;;;2.00;;
54368;SDS011;40266;52.434;17.056;2023-04-24T16:05:38;4.80;;;2.40;;
54368;SDS011;40266;52.434;17.056;2023-04-24T16:08:22;6.00;;;3.00;;
54368;SDS011;40266;52.434;17.056;2023-04-24T16:11:08;5.10;;;2.40;;
54368;SDS011;40266;52.434;17.056;2023-04-24T16:13:51;5.00;;;2.40;;
54368;SDS011;40266;52.434;17.056;2023-04-24T16:16:57;4.10;;;2.50;;
54368;SDS011;40266;52.434;17.056;2023-04-24T16:19:44;4.60;;;2.40;;
54368;SDS011;40266;52.434;17.056;2023-04-24T16:22:27;4.00;;;2.20;;
54368;SDS011;40266;52.434;17.056;2023-04-24T16:25:10;3.90;;;2.60;;
54368;SDS011;40266;52.434;17.056;2023-04-24T16:27:54;3.50;;;2.20;;
54368;SDS011;40266;52.434;17.056;2023-04-24T16:30:39;3.10;;;2.40;;
54368;SDS011;40266;52.434;17.056;2023-04-24T16:33:22;7.50;;;2.90;;
54368;SDS011;40266;52.434;17.056;2023-04-24T16:36:08;5.20;;;3.30;;
54368;SDS011;40266;52.434;17.056;2023-04-24T16:39:03;5.30;;;2.70;;
54368;SDS011;40266;52.434;17.056;2023-04-24T16:41:49;5.50;;;3.30;;
54368;SDS011;40266;52.434;17.056;2023-04-24T16:44:51;7.80;;;3.30;;
54368;SDS011;40266;52.434;17.056;2023-04-24T16:47:35;8.50;;;3.40;;
54368;SDS011;40266;52.434;17.056;2023-04-24T16:50:38;11.30;;;4.00;;